Time;durP1;ratioP1;P1;durP2;ratioP2;P2;SDS_P1;SDS_P2;PMS_P1;PMS_P2;Temp;Humidity;BMP_temperature;BMP_pressure;BME280_temperature;BME280_humidity;BME280_pressure;Samples;Min_cycle;Max_cycle;Signal;HPM_P1;HPM_P2
2021/03/24 00:01:42;;;;;;;20.27;11.53;;;;;;;0.01;76.65;96347.50;5074007;28;20197;-73
2021/03/24 00:04:08;;;;;;;19.57;11.70;;;;;;;-0.04;76.46;96344.28;5072871;28;20181;-73
2021/03/24 00:06:33;;;;;;;17.73;11.27;;;;;;;-0.05;76.36;96350.28;5072539;28;20557;-73
2021/03/24 00:09:00;;;;;;;18.03;10.80;;;;;;;-0.10;76.62;96349.66;5072678;28;20234;-73
2021/03/24 00:11:25;;;;;;;15.47;11.30;;;;;;;-0.10;76.79;96344.53;5089189;28;20190;-73
2021/03/24 00:13:50;;;;;;;18.97;10.87;;;;;;;-0.09;76.41;96341.94;5072592;28;20216;-73
2021/03/24 00:16:16;;;;;;;19.50;11.60;;;;;;;-0.14;76.77;96350.69;5055562;28;20641;-73
2021/03/24 00:18:41;;;;;;;20.60;11.97;;;;;;;-0.13;76.57;96354.88;5071883;28;20249;-73
2021/03/24 00:21:07;;;;;;;27.80;13.87;;;;;;;-0.18;76.30;96352.50;5072496;28;20188;-73
2021/03/24 00:23:32;;;;;;;27.47;14.07;;;;;;;-0.21;76.59;96354.38;5072420;28;20250;-73
2021/03/24 00:25:57;;;;;;;27.10;13.53;;;;;;;-0.16;76.38;96349.91;5072026;28;20177;-72
2021/03/24 00:28:22;;;;;;;28.10;13.10;;;;;;;-0.28;76.73;96346.94;5073538;28;20192;-73
2021/03/24 00:30:49;;;;;;;27.60;14.27;;;;;;;-0.29;76.99;96342.75;5073496;28;20194;-73
2021/03/24 00:33:22;;;;;;;24.10;14.23;;;;;;;-0.29;76.79;96342.75;5072105;28;20570;-73
2021/03/24 00:35:48;;;;;;;27.40;15.07;;;;;;;-0.32;76.98;96342.06;5088808;28;20264;-72
2021/03/24 00:38:15;;;;;;;30.57;14.83;;;;;;;-0.32;77.15;96342.88;5072253;28;20215;-73
2021/03/24 00:40:43;;;;;;;32.40;14.37;;;;;;;-0.26;76.79;96339.25;5055262;28;20188;-73
2021/03/24 00:43:09;;;;;;;30.37;15.30;;;;;;;-0.30;76.90;96341.09;5072031;28;20229;-73
2021/03/24 00:45:35;;;;;;;28.77;14.63;;;;;;;-0.37;76.97;96339.66;5072969;28;20242;-73
2021/03/24 00:48:02;;;;;;;27.97;15.40;;;;;;;-0.34;77.15;96334.47;5088835;28;20178;-74
2021/03/24 00:50:29;;;;;;;23.10;14.97;;;;;;;-0.42;77.04;96338.22;5071928;28;20177;-73
2021/03/24 00:52:55;;;;;;;24.63;14.67;;;;;;;-0.50;77.46;96337.69;5071647;28;20201;-73
2021/03/24 00:55:21;;;;;;;21.77;13.50;;;;;;;-0.50;77.31;96330.88;5072577;28;20354;-73
2021/03/24 00:57:46;;;;;;;27.27;14.80;;;;;;;-0.48;77.43;96331.63;5071922;28;20229;-72
2021/03/24 01:00:16;;;;;;;25.83;14.97;;;;;;;-0.42;77.34;96330.56;5071514;28;20756;-73
2021/03/24 01:02:42;;;;;;;23.30;14.63;;;;;;;-0.45;77.20;96330.66;5054932;28;20205;-73
2021/03/24 01:05:08;;;;;;;18.63;13.13;;;;;;;-0.46;77.49;96329.00;5072456;28;20184;-73
2021/03/24 01:07:34;;;;;;;19.33;13.03;;;;;;;-0.51;77.91;96331.75;5071370;28;20645;-73
2021/03/24 01:09:59;;;;;;;25.87;13.13;;;;;;;-0.49;77.75;96329.97;5071321;28;20189;-72
2021/03/24 01:12:25;;;;;;;20.83;12.30;;;;;;;-0.51;77.77;96320.72;5054461;28;20218;-73
2021/03/24 01:14:50;;;;;;;18.43;11.60;;;;;;;-0.59;77.88;96321.03;5071277;28;20603;-73
2021/03/24 01:17:15;;;;;;;19.97;11.33;;;;;;;-0.61;78.14;96318.53;5054592;28;20700;-73
2021/03/24 01:19:43;;;;;;;22.87;12.23;;;;;;;-0.66;78.04;96324.72;5072815;28;20527;-73
2021/03/24 01:22:08;;;;;;;19.63;12.03;;;;;;;-0.64;78.37;96317.81;5071184;28;20338;-73
2021/03/24 01:24:33;;;;;;;22.77;12.73;;;;;;;-0.67;78.54;96320.50;5070903;28;20181;-73
2021/03/24 01:26:58;;;;;;;22.60;12.77;;;;;;;-0.64;78.60;96312.72;5072341;28;20185;-73
2021/03/24 01:29:24;;;;;;;19.07;12.20;;;;;;;-0.70;78.51;96315.53;5070665;28;20184;-73
2021/03/24 01:31:49;;;;;;;21.90;12.93;;;;;;;-0.71;78.05;96306.19;5070211;28;20215;-72
2021/03/24 01:34:14;;;;;;;21.47;11.57;;;;;;;-0.71;78.48;96306.19;5070675;28;20211;-73
2021/03/24 01:36:40;;;;;;;17.73;11.77;;;;;;;-0.74;78.83;96304.59;5072051;28;20645;-73
2021/03/24 01:39:05;;;;;;;22.93;13.50;;;;;;;-0.80;79.00;96301.44;5072369;28;20264;-73
2021/03/24 01:41:31;;;;;;;20.57;12.23;;;;;;;-0.76;78.92;96303.84;5087734;28;20267;-73
2021/03/24 01:43:56;;;;;;;20.37;11.83;;;;;;;-0.75;79.33;96304.66;5087649;28;20266;-73
2021/03/24 01:46:27;;;;;;;24.63;12.00;;;;;;;-0.78;78.95;96304.78;5070723;28;20188;-73
2021/03/24 01:49:08;;;;;;;20.17;11.63;;;;;;;-0.74;78.80;96299.50;5071860;28;20572;-73
2021/03/24 01:51:40;;;;;;;23.60;12.03;;;;;;;-0.79;79.05;96301.41;5070741;28;20250;-73
2021/03/24 01:54:09;;;;;;;20.80;11.90;;;;;;;-0.82;78.70;96303.25;5053983;28;20207;-73
2021/03/24 01:56:35;;;;;;;20.30;12.10;;;;;;;-0.87;79.53;96298.34;5071559;28;20181;-73
2021/03/24 01:59:00;;;;;;;19.67;11.10;;;;;;;-0.84;79.30;96299.94;5087477;28;20184;-72
2021/03/24 02:01:26;;;;;;;21.03;11.57;;;;;;;-0.85;79.22;96304.19;5070350;28;20187;-72
2021/03/24 02:03:52;;;;;;;19.73;11.73;;;;;;;-0.86;79.59;96303.38;5087366;28;20172;-73
2021/03/24 02:06:43;;;;;;;18.97;11.77;;;;;;;-0.88;79.52;96300.06;5087213;28;20264;-73
2021/03/24 02:09:15;;;;;;;20.83;11.63;;;;;;;-0.83;79.49;96296.47;5062104;28;20225;-73
2021/03/24 02:11:55;;;;;;;18.43;11.10;;;;;;;-0.78;79.14;96297.97;5070402;28;20212;-73
2021/03/24 02:14:29;;;;;;;18.77;11.63;;;;;;;-0.78;79.68;96285.22;5087150;28;20216;-73
2021/03/24 02:16:55;;;;;;;20.37;11.97;;;;;;;-0.61;78.89;96294.75;5087163;28;20709;-73
2021/03/24 02:19:43;;;;;;;18.00;11.70;;;;;;;-0.59;78.83;96286.13;5087234;28;20189;-72
2021/03/24 02:22:10;;;;;;;18.63;11.40;;;;;;;-0.46;78.46;96283.91;5087123;28;20215;-73
2021/03/24 02:24:47;;;;;;;22.13;11.03;;;;;;;-0.40;78.37;96288.75;5086946;28;20185;-73
2021/03/24 02:27:17;;;;;;;21.30;11.57;;;;;;;-0.42;78.30;96293.09;5070228;28;20176;-72
2021/03/24 02:29:56;;;;;;;23.17;12.67;;;;;;;-0.29;78.09;96286.59;5070361;28;20261;-73
2021/03/24 02:32:24;;;;;;;18.30;10.97;;;;;;;-0.33;78.12;96287.63;5070061;28;20660;-73
2021/03/24 02:34:50;;;;;;;19.93;11.53;;;;;;;-0.31;78.09;96290.09;5069791;28;20204;-73
2021/03/24 02:37:16;;;;;;;18.93;11.63;;;;;;;-0.12;77.61;96285.06;5087019;28;20177;-73
2021/03/24 02:39:43;;;;;;;19.23;10.63;;;;;;;-0.26;77.52;96285.66;5087061;28;20177;-73
2021/03/24 02:42:10;;;;;;;19.13;11.57;;;;;;;-0.31;77.54;96282.44;5088984;28;20294;-73
2021/03/24 02:44:36;;;;;;;19.70;10.53;;;;;;;-0.24;77.92;96291.53;5090971;28;20169;-73
2021/03/24 02:47:03;;;;;;;19.90;11.17;;;;;;;-0.30;78.01;96286.66;5091060;28;20169;-73
2021/03/24 02:49:29;;;;;;;20.27;11.97;;;;;;;-0.37;77.70;96288.63;5090989;28;20193;-73
2021/03/24 02:51:54;;;;;;;18.87;10.67;;;;;;;-0.41;78.08;96291.38;5074009;28;20254;-73
2021/03/24 02:54:22;;;;;;;15.63;10.80;;;;;;;-0.43;78.27;96293.19;5073671;28;20248;-73
2021/03/24 02:56:48;;;;;;;16.97;10.93;;;;;;;-0.43;78.34;96294.00;5091018;28;20185;-73
2021/03/24 02:59:14;;;;;;;18.57;12.03;;;;;;;-0.38;78.57;96294.63;5090608;28;20185;-72
2021/03/24 03:02:13;;;;;;;18.97;10.87;;;;;;;-0.42;78.15;96288.00;5073917;28;20208;-73
2021/03/24 03:04:42;;;;;;;20.30;10.93;;;;;;;-0.41;78.04;96296.50;5051668;28;20195;-73
2021/03/24 03:07:18;;;;;;;20.33;11.23;;;;;;;-0.42;78.13;96292.28;5090801;28;20176;-73
2021/03/24 03:09:48;;;;;;;17.67;10.77;;;;;;;-0.44;78.55;96288.94;5073913;28;20600;-72
2021/03/24 03:12:34;;;;;;;21.23;11.27;;;;;;;-0.46;78.64;96288.19;5090473;28;20239;-73
2021/03/24 03:15:25;;;;;;;18.10;10.57;;;;;;;-0.45;78.58;96282.19;5090272;28;20749;-73
2021/03/24 03:18:02;;;;;;;19.13;12.00;;;;;;;-0.48;78.67;96288.25;5049433;28;20641;-73
2021/03/24 03:20:30;;;;;;;16.33;11.23;;;;;;;-0.48;79.08;96293.34;5056960;28;20177;-73
2021/03/24 03:22:58;;;;;;;19.10;11.13;;;;;;;-0.47;78.67;96283.97;5073623;28;20193;-73
2021/03/24 03:25:35;;;;;;;21.17;11.40;;;;;;;-0.46;78.73;96277.97;5073570;28;20533;-73
2021/03/24 03:28:04;;;;;;;15.53;11.07;;;;;;;-0.51;78.63;96280.72;5090392;28;20172;-73
2021/03/24 03:30:32;;;;;;;20.17;11.20;;;;;;;-0.49;79.01;96275.56;5073349;28;20230;-73
2021/03/24 03:33:01;;;;;;;19.90;11.57;;;;;;;-0.48;78.81;96283.16;5090558;28;20309;-73
2021/03/24 03:35:28;;;;;;;19.57;11.07;;;;;;;-0.49;78.47;96281.50;5090057;28;20283;-73
2021/03/24 03:37:56;;;;;;;19.93;11.27;;;;;;;-0.45;78.57;96275.34;5090299;28;20180;-73
2021/03/24 03:40:23;;;;;;;18.90;10.93;;;;;;;-0.52;78.55;96270.59;5073200;28;20184;-73
2021/03/24 03:42:48;;;;;;;17.10;10.37;;;;;;;-0.54;78.88;96269.81;5076537;28;20348;-73
2021/03/24 03:45:14;;;;;;;19.90;10.60;;;;;;;-0.57;79.01;96265.66;5093769;28;20180;-73
2021/03/24 03:47:43;;;;;;;17.60;11.23;;;;;;;-0.58;78.87;96271.66;5093914;28;20226;-72
2021/03/24 03:50:12;;;;;;;19.37;10.93;;;;;;;-0.65;78.84;96263.41;5076970;28;20213;-73
2021/03/24 03:53:01;;;;;;;18.90;11.10;;;;;;;-0.71;78.85;96270.47;5059454;28;20205;-73
2021/03/24 03:55:44;;;;;;;18.63;9.97;;;;;;;-0.79;79.39;96272.53;5071569;28;20254;-73
2021/03/24 03:58:48;;;;;;;19.43;10.00;;;;;;;-0.73;79.71;96277.38;5076870;28;20181;-73
2021/03/24 04:01:21;;;;;;;21.13;11.30;;;;;;;-0.68;79.65;96271.22;5076639;28;20222;-73
2021/03/24 04:03:53;;;;;;;19.67;10.57;;;;;;;-0.72;79.64;96272.19;5077542;28;20176;-73
2021/03/24 04:06:23;;;;;;;18.10;11.27;;;;;;;-0.77;79.60;96271.56;5076584;28;20662;-73
2021/03/24 04:08:49;;;;;;;17.43;10.83;;;;;;;-0.76;79.89;96277.50;5058441;28;20668;-73
2021/03/24 04:11:16;;;;;;;18.37;10.93;;;;;;;-0.73;79.89;96267.16;5089624;28;20213;-73
2021/03/24 04:13:45;;;;;;;20.87;11.63;;;;;;;-0.81;80.18;96271.75;5089368;28;20733;-73
2021/03/24 04:16:10;;;;;;;18.03;10.70;;;;;;;-0.88;79.63;96273.72;5089192;28;20184;-73
2021/03/24 04:18:44;;;;;;;19.80;11.17;;;;;;;-0.97;80.22;96274.91;5072593;28;20184;-73
2021/03/24 04:21:10;;;;;;;18.00;11.13;;;;;;;-1.05;79.95;96282.03;5089508;28;20177;-74
2021/03/24 04:23:44;;;;;;;19.87;10.83;;;;;;;-1.12;80.29;96280.59;5089354;28;20189;-72
2021/03/24 04:26:16;;;;;;;15.50;9.00;;;;;;;-1.22;80.62;96277.59;5072140;28;20656;-74
2021/03/24 04:28:43;;;;;;;18.53;10.00;;;;;;;-1.25;80.75;96275.13;5072440;28;20216;-73
2021/03/24 04:31:11;;;;;;;17.57;10.53;;;;;;;-1.33;80.69;96278.84;5072588;28;20542;-74
2021/03/24 04:33:36;;;;;;;19.23;10.93;;;;;;;-1.39;80.99;96263.81;5055499;28;20220;-74
2021/03/24 04:36:08;;;;;;;18.13;11.03;;;;;;;-1.30;81.62;96271.13;5072100;28;20189;-74
2021/03/24 04:38:40;;;;;;;17.67;10.33;;;;;;;-1.28;81.26;96269.34;5073578;28;20193;-74
2021/03/24 04:41:09;;;;;;;16.50;9.93;;;;;;;-1.25;81.38;96272.59;5089075;28;20598;-74
2021/03/24 04:43:38;;;;;;;18.27;11.20;;;;;;;-1.18;81.32;96275.72;5088986;28;20571;-73
2021/03/24 04:46:21;;;;;;;16.13;10.53;;;;;;;-1.16;81.46;96279.88;5073171;28;20641;-74
2021/03/24 04:48:49;;;;;;;17.87;10.97;;;;;;;-1.13;81.40;96278.94;5089035;28;20189;-73
2021/03/24 04:51:21;;;;;;;20.80;12.10;;;;;;;-1.17;81.79;96279.94;5071855;28;20215;-73
2021/03/24 04:53:50;;;;;;;21.50;12.30;;;;;;;-1.22;81.36;96285.22;5071794;28;20255;-74
2021/03/24 04:56:17;;;;;;;19.63;10.53;;;;;;;-1.25;81.60;96274.31;5088496;28;20644;-73
2021/03/24 04:58:51;;;;;;;18.70;10.63;;;;;;;-1.30;81.46;96282.13;5088640;28;20176;-73
2021/03/24 05:01:23;;;;;;;22.40;11.73;;;;;;;-1.34;81.49;96283.13;5071420;28;20185;-74
2021/03/24 05:03:53;;;;;;;16.30;11.03;;;;;;;-1.39;81.29;96272.28;5088624;28;20201;-73
2021/03/24 05:06:36;;;;;;;18.73;11.77;;;;;;;-1.43;81.37;96281.75;5071174;28;20695;-73
2021/03/24 05:09:02;;;;;;;18.90;10.30;;;;;;;-1.45;81.67;96275.06;5071511;28;20668;-73
2021/03/24 05:11:36;;;;;;;16.60;9.80;;;;;;;-1.46;81.66;96275.94;5088006;28;20200;-74
2021/03/24 05:14:33;;;;;;;16.60;10.70;;;;;;;-1.46;81.81;96279.31;5071282;28;20712;-73
2021/03/24 05:17:07;;;;;;;19.23;10.20;;;;;;;-1.48;81.49;96272.63;5088235;28;20546;-73
2021/03/24 05:19:32;;;;;;;18.50;9.83;;;;;;;-1.45;81.59;96283.53;5088230;28;20192;-74
2021/03/24 05:22:38;;;;;;;18.47;9.60;;;;;;;-1.49;81.62;96274.34;5071049;28;20555;-74
2021/03/24 05:25:05;;;;;;;19.63;9.87;;;;;;;-1.46;81.29;96281.88;5033185;28;20189;-73
2021/03/24 05:27:39;;;;;;;17.50;10.33;;;;;;;-1.49;81.30;96279.44;5050008;28;20563;-73
2021/03/24 05:30:26;;;;;;;15.07;9.60;;;;;;;-1.50;81.42;96275.25;5033383;28;20560;-73
2021/03/24 05:33:03;;;;;;;16.73;9.27;;;;;;;-1.46;81.24;96281.88;5049902;28;20748;-73
2021/03/24 05:35:58;;;;;;;13.70;8.80;;;;;;;-1.48;80.93;96276.00;5049728;28;20590;-73
2021/03/24 05:38:23;;;;;;;14.10;8.10;;;;;;;-1.48;80.99;96283.66;5016771;28;20184;-72
2021/03/24 05:40:58;;;;;;;15.27;9.57;;;;;;;-1.46;81.16;96283.59;5049714;28;20192;-74
2021/03/24 05:43:46;;;;;;;16.50;9.60;;;;;;;-1.46;80.52;96281.88;5033199;28;20197;-73
2021/03/24 05:46:30;;;;;;;13.57;8.33;;;;;;;-1.40;81.22;96288.47;5049601;28;20185;-73
2021/03/24 05:49:04;;;;;;;16.47;8.27;;;;;;;-1.33;80.93;96286.50;5049686;28;20192;-73
2021/03/24 05:51:51;;;;;;;13.00;8.50;;;;;;;-1.25;80.60;96289.59;5016402;28;20193;-73
2021/03/24 05:54:19;;;;;;;14.57;8.60;;;;;;;-1.24;80.80;96288.69;5032777;28;20271;-73
2021/03/24 05:57:15;;;;;;;15.60;8.90;;;;;;;-1.19;80.88;96291.91;5049540;28;20177;-73
2021/03/24 05:59:57;;;;;;;13.93;8.60;;;;;;;-1.13;80.90;96290.88;5062004;28;20224;-73
2021/03/24 06:02:49;;;;;;;15.50;9.53;;;;;;;-1.09;80.69;96293.22;5070671;28;20577;-73
2021/03/24 06:05:37;;;;;;;12.40;8.07;;;;;;;-1.02;80.53;96302.31;5087048;28;20202;-73
2021/03/24 06:08:25;;;;;;;15.10;9.80;;;;;;;-0.94;80.68;96305.38;5053673;28;20327;-73
2021/03/24 06:11:12;;;;;;;15.27;8.60;;;;;;;-0.86;80.59;96305.09;5087383;28;20181;-73
2021/03/24 06:14:04;;;;;;;10.83;7.40;;;;;;;-0.76;80.43;96308.09;5070277;28;20227;-73
2021/03/24 06:16:34;;;;;;;12.33;8.70;;;;;;;-0.64;80.39;96302.50;5064927;28;20712;-73
2021/03/24 06:19:24;;;;;;;13.33;8.77;;;;;;;-0.57;80.45;96298.81;5067986;28;20188;-73
2021/03/24 06:22:10;;;;;;;12.80;8.30;;;;;;;-0.48;80.53;96306.09;5069744;28;20228;-73
2021/03/24 06:24:59;;;;;;;14.87;8.90;;;;;;;-0.40;80.36;96304.06;5069924;28;20271;-73
2021/03/24 06:27:33;;;;;;;13.13;9.93;;;;;;;-0.30;80.37;96310.47;5069646;28;20223;-73
2021/03/24 06:30:15;;;;;;;12.97;8.43;;;;;;;-0.19;80.29;96306.63;5053044;28;20192;-73
2021/03/24 06:32:53;;;;;;;14.03;8.43;;;;;;;-0.07;80.37;96313.78;5047513;28;20204;-73
2021/03/24 06:35:36;;;;;;;14.47;8.60;;;;;;;0.02;79.93;96308.28;5066810;28;20215;-73
2021/03/24 06:38:22;;;;;;;15.03;8.87;;;;;;;0.10;79.43;96310.53;5064895;28;20533;-77
2021/03/24 06:41:10;;;;;;;12.47;8.23;;;;;;;0.18;79.24;96319.53;5050139;28;20174;-73
2021/03/24 06:44:00;;;;;;;12.50;7.97;;;;;;;0.34;79.52;96312.00;5033237;28;20197;-73
2021/03/24 06:46:40;;;;;;;12.50;8.33;;;;;;;0.47;79.67;96314.88;5033090;28;20193;-74
2021/03/24 06:50:10;;;;;;;13.17;9.07;;;;;;;0.66;79.05;96313.16;5042063;28;20779;-72
2021/03/24 06:52:54;;;;;;;12.90;8.20;;;;;;;0.76;78.29;96311.00;4992659;28;20313;-72
2021/03/24 06:55:47;;;;;;;13.40;7.63;;;;;;;0.89;78.06;96316.41;5008818;28;20218;-72
2021/03/24 06:58:23;;;;;;;11.47;7.70;;;;;;;0.93;77.35;96321.28;5009382;28;20262;-73
2021/03/24 07:01:06;;;;;;;13.20;8.97;;;;;;;0.94;77.39;96324.66;5009235;28;20228;-73
2021/03/24 07:03:58;;;;;;;15.07;9.63;;;;;;;1.07;77.00;96330.91;5009208;28;20869;-73
2021/03/24 07:07:01;;;;;;;16.83;9.33;;;;;;;1.18;77.05;96330.41;5008854;28;20286;-72
2021/03/24 07:09:57;;;;;;;17.27;8.97;;;;;;;1.32;76.52;96339.06;5008883;28;20222;-72
2021/03/24 07:12:32;;;;;;;14.70;9.83;;;;;;;1.46;76.21;96345.28;4992927;28;20231;-73
2021/03/24 07:15:14;;;;;;;13.50;9.77;;;;;;;1.48;75.68;96344.28;4992572;28;20207;-72
2021/03/24 07:18:04;;;;;;;12.37;8.60;;;;;;;1.58;75.43;96345.50;4992889;28;20175;-72
2021/03/24 07:20:51;;;;;;;14.03;10.57;;;;;;;1.72;74.85;96347.41;4992492;28;20192;-73
2021/03/24 07:23:22;;;;;;;14.57;11.43;;;;;;;1.82;75.13;96347.78;5008902;28;20210;-72
2021/03/24 07:26:26;;;;;;;14.33;10.00;;;;;;;1.91;74.59;96352.47;5028393;28;20192;-73
2021/03/24 07:29:17;;;;;;;14.13;8.73;;;;;;;1.96;74.37;96355.66;5053737;28;20215;-74
2021/03/24 07:32:04;;;;;;;14.67;8.90;;;;;;;2.07;73.58;96353.38;5056584;28;20224;-74
2021/03/24 07:34:48;;;;;;;13.70;8.37;;;;;;;2.13;73.50;96360.75;5055215;28;20201;-73
2021/03/24 07:37:34;;;;;;;11.73;8.40;;;;;;;2.18;72.89;96357.94;5068344;28;20281;-73
2021/03/24 07:40:20;;;;;;;18.23;8.80;;;;;;;2.28;73.06;96357.41;5073934;28;20193;-73
2021/03/24 07:43:14;;;;;;;15.67;9.03;;;;;;;2.23;71.98;96356.00;5068025;28;20216;-73
2021/03/24 07:45:56;;;;;;;12.70;8.67;;;;;;;2.33;72.57;96361.50;5080579;28;20185;-72
2021/03/24 07:48:49;;;;;;;13.97;8.97;;;;;;;2.44;71.96;96359.19;5053065;28;20297;-72
2021/03/24 07:51:51;;;;;;;12.57;8.20;;;;;;;2.53;72.09;96364.69;5057971;28;20200;-73
2021/03/24 07:54:21;;;;;;;13.53;8.17;;;;;;;2.61;71.49;96363.47;5073670;28;20820;-72
2021/03/24 07:56:57;;;;;;;11.40;8.23;;;;;;;2.65;71.65;96358.13;5071618;28;20652;-71
2021/03/24 07:59:29;;;;;;;14.57;9.37;;;;;;;2.70;72.09;96361.25;5061448;28;20189;-72
2021/03/24 08:02:11;;;;;;;14.43;8.27;;;;;;;2.72;71.56;96363.72;5066166;28;20201;-72
2021/03/24 08:04:55;;;;;;;16.00;9.07;;;;;;;2.73;72.05;96361.09;5064369;28;20319;-72
2021/03/24 08:07:46;;;;;;;11.83;8.27;;;;;;;2.77;71.24;96354.06;5067330;28;20606;-74
2021/03/24 08:10:46;;;;;;;12.87;8.27;;;;;;;2.84;70.70;96357.97;5067587;28;20183;-74
2021/03/24 08:13:36;;;;;;;12.80;8.63;;;;;;;2.86;70.55;96355.34;5046190;28;20236;-74
2021/03/24 08:16:29;;;;;;;13.13;8.73;;;;;;;2.89;70.63;96353.41;5071302;28;20278;-74
2021/03/24 08:19:21;;;;;;;17.03;8.60;;;;;;;2.94;70.60;96354.00;5068488;28;20625;-74
2021/03/24 08:22:12;;;;;;;14.83;8.40;;;;;;;3.01;70.44;96351.97;5067064;28;20209;-74
2021/03/24 08:25:08;;;;;;;15.07;8.73;;;;;;;3.15;70.77;96351.19;5068493;28;20193;-74
2021/03/24 08:27:40;;;;;;;13.07;8.33;;;;;;;3.21;70.20;96351.72;5072013;28;20190;-73
2021/03/24 08:30:26;;;;;;;16.43;8.93;;;;;;;3.44;69.80;96347.03;5072304;28;20178;-74
2021/03/24 08:33:22;;;;;;;13.60;8.40;;;;;;;3.61;67.73;96360.59;5072279;28;20572;-74
2021/03/24 08:36:00;;;;;;;13.73;7.83;;;;;;;3.67;68.38;96362.84;5072174;28;20553;-74
2021/03/24 08:38:53;;;;;;;11.10;7.90;;;;;;;3.86;67.02;96361.81;5055297;28;20264;-73
2021/03/24 08:41:47;;;;;;;12.07;8.47;;;;;;;4.05;67.12;96356.44;5073120;28;20186;-74
2021/03/24 08:44:19;;;;;;;13.70;7.87;;;;;;;4.21;66.94;96359.78;5071939;28;20174;-74
2021/03/24 08:46:52;;;;;;;13.10;7.53;;;;;;;4.18;66.06;96359.97;5055310;28;20213;-74
2021/03/24 08:49:19;;;;;;;11.40;8.13;;;;;;;4.28;65.63;96355.94;5071962;28;20599;-74
2021/03/24 08:51:54;;;;;;;12.47;8.33;;;;;;;4.39;65.99;96357.88;5071845;28;20289;-74
2021/03/24 08:54:43;;;;;;;14.90;9.03;;;;;;;4.44;65.57;96358.44;5071598;28;20201;-74
2021/03/24 08:57:33;;;;;;;11.47;8.07;;;;;;;4.58;65.33;96352.47;5072045;28;20285;-74
2021/03/24 09:00:04;;;;;;;11.90;7.83;;;;;;;4.56;65.24;96360.28;5073010;28;20174;-74
2021/03/24 09:02:51;;;;;;;11.90;8.23;;;;;;;4.72;64.08;96361.03;5072860;28;20207;-74
2021/03/24 09:05:26;;;;;;;9.93;7.77;;;;;;;4.74;63.51;96354.03;5071295;28;20553;-74
2021/03/24 09:08:08;;;;;;;12.40;8.23;;;;;;;4.84;63.93;96360.28;5071534;28;20173;-74
2021/03/24 09:10:48;;;;;;;12.93;7.83;;;;;;;4.91;63.63;96358.16;5071648;28;20637;-74
2021/03/24 09:13:23;;;;;;;14.60;8.47;;;;;;;5.07;62.68;96360.66;5072595;28;20257;-74
2021/03/24 09:16:13;;;;;;;12.47;7.83;;;;;;;5.14;63.38;96366.25;5071114;28;20200;-74
2021/03/24 09:18:47;;;;;;;14.67;7.57;;;;;;;5.20;63.84;96365.84;5071432;28;20464;-74
2021/03/24 09:21:15;;;;;;;10.40;7.47;;;;;;;5.20;62.88;96353.81;5071344;28;20180;-74
2021/03/24 09:23:59;;;;;;;14.03;7.87;;;;;;;5.23;62.32;96351.06;5054439;28;20181;-74
2021/03/24 09:26:59;;;;;;;11.10;8.00;;;;;;;5.19;62.41;96359.88;5070889;28;20271;-74
2021/03/24 09:29:45;;;;;;;12.43;8.50;;;;;;;5.23;62.33;96352.81;5072516;28;20703;-74
2021/03/24 09:32:26;;;;;;;11.43;7.60;;;;;;;5.20;61.75;96346.06;5054328;28;20211;-75
2021/03/24 09:35:16;;;;;;;10.70;7.77;;;;;;;5.28;61.26;96351.59;5070749;28;20677;-75
2021/03/24 09:37:44;;;;;;;9.93;7.63;;;;;;;5.38;61.25;96352.66;5070930;28;20512;-74
2021/03/24 09:40:15;;;;;;;9.93;7.03;;;;;;;5.49;60.40;96356.34;5070834;28;20184;-75
2021/03/24 09:42:48;;;;;;;11.77;7.90;;;;;;;5.61;61.14;96351.22;5071003;28;20234;-75
2021/03/24 09:45:14;;;;;;;14.30;7.63;;;;;;;5.82;60.25;96354.16;5070991;28;20541;-75
2021/03/24 09:47:45;;;;;;;10.33;7.57;;;;;;;5.87;61.05;96352.13;5072064;28;20175;-75
2021/03/24 09:50:13;;;;;;;11.80;7.80;;;;;;;6.00;60.52;96351.34;5070916;28;20546;-75
2021/03/24 09:52:58;;;;;;;9.33;7.33;;;;;;;6.14;60.19;96359.03;5071138;28;20200;-75
2021/03/24 09:55:27;;;;;;;10.63;7.60;;;;;;;6.28;59.25;96350.38;5053742;28;20216;-75
2021/03/24 09:58:32;;;;;;;13.77;7.87;;;;;;;6.10;59.49;96347.25;5070784;28;20254;-74
2021/03/24 10:01:24;;;;;;;12.23;8.00;;;;;;;6.07;58.41;96352.59;5070697;28;20177;-75
2021/03/24 10:03:58;;;;;;;10.90;7.23;;;;;;;6.10;59.41;96349.84;5071811;28;20225;-75
2021/03/24 10:06:26;;;;;;;13.23;7.97;;;;;;;6.15;57.97;96353.75;5070427;28;20173;-75
2021/03/24 10:09:04;;;;;;;11.33;8.00;;;;;;;6.15;58.48;96337.47;5072270;28;20260;-75
2021/03/24 10:11:34;;;;;;;10.93;7.80;;;;;;;6.29;58.41;96346.88;5070507;28;20189;-75
2021/03/24 10:14:09;;;;;;;15.63;8.70;;;;;;;6.21;58.99;96345.63;5070519;28;20203;-75
2021/03/24 10:16:38;;;;;;;11.40;8.20;;;;;;;6.33;58.24;96349.13;5070351;28;20177;-75
2021/03/24 10:19:12;;;;;;;11.93;8.00;;;;;;;6.31;58.64;96343.25;5070423;28;20267;-75
2021/03/24 10:21:53;;;;;;;11.73;7.87;;;;;;;6.45;59.55;96347.50;5070323;28;20201;-75
2021/03/24 10:24:25;;;;;;;13.40;8.30;;;;;;;6.51;58.89;96344.50;5071496;28;20547;-75
2021/03/24 10:27:05;;;;;;;13.23;8.10;;;;;;;6.52;60.08;96349.53;5070473;28;20256;-75
2021/03/24 10:29:49;;;;;;;14.47;8.97;;;;;;;6.65;59.40;96339.25;5071698;28;20173;-75
2021/03/24 10:32:28;;;;;;;12.17;8.23;;;;;;;6.72;58.82;96348.22;5072938;28;20205;-75
2021/03/24 10:35:01;;;;;;;13.10;8.80;;;;;;;6.69;58.95;96340.66;5069870;28;20610;-75
2021/03/24 10:37:44;;;;;;;15.87;9.40;;;;;;;6.75;58.14;96336.84;5070139;28;20422;-75
2021/03/24 10:40:20;;;;;;;11.50;8.03;;;;;;;6.75;57.25;96342.03;5070287;28;20180;-75
2021/03/24 10:42:57;;;;;;;12.30;8.80;;;;;;;6.87;58.09;96336.00;5070156;28;20250;-75
2021/03/24 10:45:33;;;;;;;14.80;9.40;;;;;;;6.74;58.76;96333.44;5069817;28;20228;-76
2021/03/24 10:48:10;;;;;;;12.20;8.33;;;;;;;6.81;58.39;96328.69;5069946;28;20173;-75
2021/03/24 10:50:42;;;;;;;13.37;8.97;;;;;;;6.85;58.35;96324.97;5071372;28;20590;-76
2021/03/24 10:53:21;;;;;;;17.13;8.67;;;;;;;6.80;58.05;96329.59;5070079;28;20205;-76
2021/03/24 10:55:58;;;;;;;10.67;8.50;;;;;;;6.81;57.87;96323.53;5053099;28;20209;-75
2021/03/24 10:58:38;;;;;;;15.77;8.93;;;;;;;7.07;57.97;96327.72;5069945;28;20629;-75
2021/03/24 11:01:08;;;;;;;12.50;8.40;;;;;;;7.14;58.57;96324.69;5069919;28;20181;-75
2021/03/24 11:03:41;;;;;;;11.53;8.70;;;;;;;7.18;57.61;96316.63;5055592;28;20204;-75
2021/03/24 11:06:19;;;;;;;12.47;8.07;;;;;;;7.26;56.56;96323.84;5074358;28;20177;-76
2021/03/24 11:09:10;;;;;;;11.23;8.27;;;;;;;7.34;57.05;96321.53;5073706;28;20180;-75
2021/03/24 11:11:45;;;;;;;12.20;8.37;;;;;;;7.41;55.61;96317.56;5073667;28;20262;-75
2021/03/24 11:14:23;;;;;;;14.60;8.67;;;;;;;7.53;56.06;96311.53;5073719;28;20582;-75
2021/03/24 11:17:00;;;;;;;11.30;8.67;;;;;;;7.61;56.64;96314.41;5074082;28;20331;-76
2021/03/24 11:19:28;;;;;;;11.17;7.47;;;;;;;7.69;57.09;96300.09;5074951;28;20188;-76
2021/03/24 11:22:14;;;;;;;11.17;7.67;;;;;;;7.69;55.40;96303.50;5074680;28;20220;-76
2021/03/24 11:24:40;;;;;;;9.77;7.37;;;;;;;7.86;55.79;96302.25;5074575;28;20177;-76
2021/03/24 11:27:09;;;;;;;10.10;7.47;;;;;;;7.97;55.88;96304.06;5074129;28;20261;-76
2021/03/24 11:29:45;;;;;;;12.27;7.43;;;;;;;8.07;54.86;96297.28;5073561;28;20223;-75
2021/03/24 11:32:45;;;;;;;12.47;8.03;;;;;;;8.16;53.85;96301.78;5073327;28;20295;-76
2021/03/24 11:35:21;;;;;;;11.80;6.97;;;;;;;8.38;54.52;96288.88;5042888;28;20236;-74
2021/03/24 11:38:08;;;;;;;12.33;8.23;;;;;;;8.51;54.20;96296.56;5073160;28;20535;-76
2021/03/24 11:40:40;;;;;;;11.53;7.20;;;;;;;8.44;53.15;96292.78;5073519;28;20515;-76
2021/03/24 11:43:09;;;;;;;10.10;6.07;;;;;;;8.65;52.31;96288.53;5073164;28;20185;-75
2021/03/24 11:45:36;;;;;;;12.63;6.90;;;;;;;8.72;52.43;96286.31;5072811;28;20166;-76
2021/03/24 11:48:18;;;;;;;8.13;6.17;;;;;;;8.74;51.51;96285.25;5056304;28;20173;-75
2021/03/24 11:50:58;;;;;;;9.17;6.33;;;;;;;8.86;51.27;96277.50;5073152;28;20315;-75
2021/03/24 11:53:44;;;;;;;9.87;6.33;;;;;;;9.00;51.71;96279.81;5074191;28;20197;-75
2021/03/24 11:56:20;;;;;;;8.63;5.87;;;;;;;8.98;50.94;96276.53;5072602;28;20177;-75
2021/03/24 11:58:51;;;;;;;10.93;6.27;;;;;;;8.97;51.49;96273.13;5072756;28;20176;-75
2021/03/24 12:01:22;;;;;;;7.10;5.87;;;;;;;9.07;51.02;96274.03;5074121;28;20200;-76
2021/03/24 12:04:16;;;;;;;11.00;6.60;;;;;;;9.17;50.79;96270.72;5074188;28;20645;-75
2021/03/24 12:07:06;;;;;;;9.77;7.00;;;;;;;8.96;50.88;96276.66;5011733;28;20215;-75
2021/03/24 12:09:35;;;;;;;10.13;6.33;;;;;;;9.22;50.11;96279.78;4995699;28;20278;-75